createdAt,value
2018-06-27T00:00:56.920Z,74.69
2018-06-27T00:01:56.847Z,74.59
2018-06-27T00:02:56.773Z,72.01
2018-06-27T00:03:56.702Z,73.07
2018-06-27T00:04:56.627Z,68.67
2018-06-27T00:05:56.556Z,65.90
2018-06-27T00:06:56.480Z,65.71
2018-06-27T00:07:56.408Z,66.00
2018-06-27T00:08:56.335Z,66.09
2018-06-27T00:09:56.262Z,61.79
2018-06-27T00:10:56.188Z,65.14
2018-06-27T00:11:56.114Z,67.52
2018-06-27T00:12:56.043Z,61.60
2018-06-27T00:13:55.969Z,61.03
2018-06-27T00:14:55.895Z,63.60
2018-06-27T00:15:55.823Z,66.09
2018-06-27T00:16:55.750Z,61.89
2018-06-27T00:17:55.677Z,63.51
2018-06-27T00:18:55.603Z,63.51
2018-06-27T00:19:55.531Z,62.46
2018-06-27T00:20:55.458Z,66.28
2018-06-27T00:21:55.384Z,66.85
2018-06-27T00:22:55.309Z,65.71
2018-06-27T00:23:55.236Z,61.60
2018-06-27T00:24:55.163Z,60.55
2018-06-27T00:25:55.093Z,59.69
2018-06-27T00:26:55.017Z,58.36
2018-06-27T00:27:54.944Z,57.50
2018-06-27T00:28:54.870Z,58.73
2018-06-27T00:29:54.798Z,59.85
2018-06-27T00:30:54.874Z,59.56
2018-06-27T00:31:54.649Z,57.56
2018-06-27T00:32:54.581Z,54.13
2018-06-27T00:33:54.509Z,53.17
2018-06-27T00:34:54.430Z,57.37
2018-06-27T00:35:54.361Z,58.14
2018-06-27T00:36:54.285Z,60.04
2018-06-27T00:37:54.211Z,59.85
2018-06-27T00:38:54.137Z,57.56
2018-06-27T00:39:54.064Z,57.94
2018-06-27T00:40:53.996Z,58.80
2018-06-27T00:41:53.917Z,55.36
2018-06-27T00:42:53.844Z,55.27
2018-06-27T00:43:53.769Z,60.61
2018-06-27T00:44:53.697Z,63.29
2018-06-27T00:45:53.623Z,60.42
2018-06-27T00:46:53.551Z,54.13
2018-06-27T00:47:53.476Z,56.32
2018-06-27T00:48:53.404Z,56.23
2018-06-27T00:49:53.331Z,61.38
2018-06-27T00:50:53.256Z,61.29
2018-06-27T00:51:53.182Z,58.99
2018-06-27T00:52:53.109Z,60.04
2018-06-27T00:53:53.039Z,59.76
2018-06-27T00:54:52.961Z,56.32
2018-06-27T00:55:52.887Z,56.99
2018-06-27T00:56:52.813Z,55.65
2018-06-27T00:57:52.741Z,57.37
2018-06-27T00:58:52.671Z,55.84
2018-06-27T00:59:52.593Z,56.80
2018-06-27T01:00:52.519Z,54.22
2018-06-27T01:01:52.447Z,52.59
2018-06-27T01:02:52.371Z,52.88
2018-06-27T01:03:52.299Z,53.91
2018-06-27T01:04:52.225Z,54.13
2018-06-27T01:05:52.153Z,54.22
2018-06-27T01:06:52.078Z,49.64
2018-06-27T01:07:52.007Z,52.40
2018-06-27T01:08:51.931Z,50.67
2018-06-27T01:09:51.856Z,47.34
2018-06-27T01:10:51.784Z,48.47
2018-06-27T01:11:51.709Z,43.98
2018-06-27T01:12:51.636Z,48.37
2018-06-27T01:13:51.563Z,50.18
2018-06-27T01:14:51.488Z,48.18
2018-06-27T01:15:51.415Z,50.38
2018-06-27T01:16:51.342Z,49.52
2018-06-27T01:17:51.268Z,46.84
2018-06-27T01:18:51.193Z,45.13
2018-06-27T01:20:03.831Z,53.05
2018-06-27T01:20:51.047Z,52.28
2018-06-27T01:21:51.323Z,49.33
2018-06-27T01:22:50.898Z,44.84
2018-06-27T01:23:50.828Z,44.56
2018-06-27T01:24:50.751Z,51.45
2018-06-27T01:25:50.678Z,44.65
2018-06-27T01:26:50.603Z,45.61
2018-06-27T01:27:50.530Z,42.65
2018-06-27T01:28:50.458Z,44.94
2018-06-27T01:29:50.383Z,45.13
2018-06-27T01:30:50.309Z,44.74
2018-06-27T01:31:50.236Z,51.71
2018-06-27T01:32:50.161Z,49.64
2018-06-27T01:33:50.089Z,49.83
2018-06-27T01:34:50.013Z,49.83
2018-06-27T01:35:49.941Z,45.72
2018-06-27T01:36:49.866Z,46.11
2018-06-27T01:37:49.793Z,50.28
2018-06-27T01:38:49.719Z,50.38
2018-06-27T01:39:49.647Z,50.28
2018-06-27T01:40:49.572Z,49.04
2018-06-27T01:41:49.497Z,47.63
2018-06-27T01:42:49.424Z,48.08
2018-06-27T01:43:49.349Z,45.70
2018-06-27T01:44:49.276Z,48.66
2018-06-27T01:45:49.203Z,45.89
2018-06-27T01:46:49.128Z,41.98
2018-06-27T01:47:49.054Z,42.17
2018-06-27T01:48:48.981Z,43.89
2018-06-27T01:49:48.911Z,42.84
2018-06-27T01:50:48.833Z,42.93
2018-06-27T01:51:48.761Z,41.41
2018-06-27T01:52:48.687Z,37.40
2018-06-27T01:53:48.613Z,37.21
2018-06-27T01:54:48.538Z,41.22
2018-06-27T01:55:48.465Z,35.11
2018-06-27T01:56:48.390Z,33.78
2018-06-27T01:57:48.317Z,31.58
2018-06-27T01:58:48.243Z,30.43
2018-06-27T01:59:48.169Z,30.63
2018-06-27T02:00:48.098Z,27.95
2018-06-27T02:01:48.022Z,30.43
2018-06-27T02:02:47.947Z,28.62
2018-06-27T02:03:47.874Z,28.81
2018-06-27T02:04:47.853Z,30.15
2018-06-27T02:05:47.726Z,31.96
2018-06-27T02:06:47.651Z,34.34
2018-06-27T02:07:47.578Z,35.30
2018-06-27T02:08:47.505Z,37.49
2018-06-27T02:09:47.430Z,39.69
2018-06-27T02:10:47.355Z,38.83
2018-06-27T02:11:47.281Z,39.22
2018-06-27T02:12:47.207Z,39.78
2018-06-27T02:13:47.132Z,37.40
2018-06-27T02:14:47.059Z,38.07
2018-06-27T02:15:46.985Z,35.76
2018-06-27T02:16:46.911Z,36.07
2018-06-27T02:17:46.837Z,35.66
2018-06-27T02:18:46.763Z,37.66
2018-06-27T02:19:46.688Z,34.81
2018-06-27T02:20:46.615Z,31.28
2018-06-27T02:21:46.541Z,31.18
2018-06-27T02:22:46.466Z,35.66
2018-06-27T02:23:46.399Z,36.33
2018-06-27T02:24:46.323Z,36.43
2018-06-27T02:25:46.246Z,35.66
2018-06-27T02:26:46.173Z,36.62
2018-06-27T02:27:46.095Z,39.39
2018-06-27T02:28:46.022Z,41.39
2018-06-27T02:29:45.948Z,36.71
2018-06-27T02:30:45.875Z,36.52
2018-06-27T02:31:45.807Z,37.57
2018-06-27T02:32:45.728Z,39.10
2018-06-27T02:33:45.662Z,37.86
2018-06-27T02:34:45.577Z,38.24
2018-06-27T02:35:45.504Z,41.10
2018-06-27T02:36:45.430Z,42.82
2018-06-27T02:37:45.356Z,40.81
2018-06-27T02:38:45.282Z,39.39
2018-06-27T02:39:45.206Z,39.29
2018-06-27T02:40:45.132Z,33.66
2018-06-27T02:41:45.058Z,35.10
2018-06-27T02:42:44.984Z,35.00
2018-06-27T02:43:44.914Z,31.95
2018-06-27T02:44:44.834Z,30.42
2018-06-27T02:45:44.762Z,28.70
2018-06-27T02:46:44.687Z,31.85
2018-06-27T02:47:44.612Z,35.28
2018-06-27T02:48:44.538Z,34.81
2018-06-27T02:49:44.514Z,38.24
2018-06-27T02:50:44.390Z,37.38
2018-06-27T02:51:44.318Z,33.95
2018-06-27T02:52:44.241Z,38.34
2018-06-27T02:53:44.168Z,38.53
2018-06-27T02:54:44.093Z,37.57
2018-06-27T02:55:44.019Z,39.76
2018-06-27T02:56:43.945Z,41.10
2018-06-27T02:57:43.871Z,41.67
2018-06-27T02:58:43.795Z,36.81
2018-06-27T02:59:43.722Z,37.57
2018-06-27T03:00:43.653Z,38.91
2018-06-27T03:01:43.574Z,37.10
2018-06-27T03:02:43.505Z,33.28
2018-06-27T03:03:43.422Z,36.24
2018-06-27T03:04:43.350Z,34.81
2018-06-27T03:05:43.277Z,31.66
2018-06-27T03:06:43.202Z,31.09
2018-06-27T03:07:43.127Z,31.09
2018-06-27T03:08:43.056Z,31.37
2018-06-27T03:09:42.985Z,31.09
2018-06-27T03:10:42.904Z,29.18
2018-06-27T03:11:42.830Z,29.94
2018-06-27T03:12:42.756Z,30.23
2018-06-27T03:13:42.832Z,33.47
2018-06-27T03:14:42.608Z,33.57
2018-06-27T03:15:42.533Z,34.52
2018-06-27T03:16:42.459Z,36.62
2018-06-27T03:17:42.388Z,33.37
2018-06-27T03:18:42.311Z,36.43
2018-06-27T03:19:42.237Z,36.81
2018-06-27T03:20:42.162Z,31.76
2018-06-27T03:21:42.089Z,32.71
2018-06-27T03:22:42.014Z,34.90
2018-06-27T03:23:41.938Z,34.90
2018-06-27T03:24:41.868Z,32.23
2018-06-27T03:25:41.791Z,32.42
2018-06-27T03:26:41.716Z,33.57
2018-06-27T03:27:41.645Z,33.57
2018-06-27T03:28:41.567Z,34.52
2018-06-27T03:29:41.496Z,36.33
2018-06-27T03:30:41.418Z,38.15
2018-06-27T03:31:41.344Z,39.10
2018-06-27T03:32:41.270Z,39.19
2018-06-27T03:33:41.228Z,40.44
2018-06-27T03:34:41.121Z,38.15
2018-06-27T03:35:41.047Z,35.19
2018-06-27T03:36:40.973Z,34.81
2018-06-27T03:37:40.902Z,36.33
2018-06-27T03:38:40.824Z,38.24
2018-06-27T03:39:40.762Z,37.00
2018-06-27T03:40:40.675Z,35.28
2018-06-27T03:41:40.602Z,37.66
2018-06-27T03:42:40.526Z,35.00
2018-06-27T03:43:40.453Z,32.61
2018-06-27T03:44:40.379Z,30.04
2018-06-27T03:45:40.305Z,32.81
2018-06-27T03:46:40.230Z,35.00
2018-06-27T03:47:40.156Z,34.71
2018-06-27T03:48:40.082Z,33.00
2018-06-27T03:49:40.008Z,31.85
2018-06-27T03:50:39.932Z,33.00
2018-06-27T03:51:39.859Z,35.38
2018-06-27T03:52:39.786Z,37.00
2018-06-27T03:53:39.710Z,36.81
2018-06-27T03:54:39.735Z,36.24
2018-06-27T03:55:39.561Z,35.00
2018-06-27T03:56:39.487Z,35.38
2018-06-27T03:57:39.416Z,35.66
2018-06-27T03:58:39.338Z,36.71
2018-06-27T03:59:39.264Z,35.38
2018-06-27T04:00:39.191Z,36.71
2018-06-27T04:01:39.118Z,35.38
2018-06-27T04:02:39.041Z,34.42
2018-06-27T04:03:38.966Z,32.32
2018-06-27T04:04:38.893Z,35.57
2018-06-27T04:05:38.819Z,36.33
2018-06-27T04:06:38.744Z,37.48
2018-06-27T04:07:38.670Z,37.10
2018-06-27T04:08:38.596Z,38.24
2018-06-27T04:09:38.522Z,38.15
2018-06-27T04:10:38.449Z,41.29
2018-06-27T04:11:38.373Z,41.20
2018-06-27T04:12:38.378Z,43.87
2018-06-27T04:13:38.226Z,44.73
2018-06-27T04:14:38.231Z,41.86
2018-06-27T04:15:38.080Z,39.48
2018-06-27T04:16:38.004Z,39.48
2018-06-27T04:17:37.933Z,40.05
2018-06-27T04:18:37.858Z,38.91
2018-06-27T04:19:37.780Z,37.38
2018-06-27T04:20:37.706Z,34.92
2018-06-27T04:21:37.633Z,34.54
2018-06-27T04:22:37.556Z,35.21
2018-06-27T04:23:37.484Z,35.39
2018-06-27T04:24:37.410Z,31.39
2018-06-27T04:25:37.337Z,30.72
2018-06-27T04:26:37.261Z,30.24
2018-06-27T04:27:37.188Z,29.86
2018-06-27T04:28:37.117Z,32.53
2018-06-27T04:29:37.043Z,33.78
2018-06-27T04:30:36.965Z,33.78
2018-06-27T04:31:36.891Z,39.22
2018-06-27T04:32:36.820Z,39.69
2018-06-27T04:33:36.744Z,39.98
2018-06-27T04:34:36.668Z,37.21
2018-06-27T04:35:36.595Z,35.68
2018-06-27T04:36:36.522Z,34.34
2018-06-27T04:37:36.447Z,34.34
2018-06-27T04:38:36.373Z,36.44
2018-06-27T04:39:36.299Z,37.49
2018-06-27T04:40:36.226Z,35.97
2018-06-27T04:41:36.152Z,35.49
2018-06-27T04:42:36.076Z,32.44
2018-06-27T04:43:36.004Z,32.73
2018-06-27T04:44:35.930Z,35.21
2018-06-27T04:45:35.857Z,35.68
2018-06-27T04:46:35.781Z,35.21
2018-06-27T04:47:35.706Z,36.07
2018-06-27T04:48:35.636Z,38.17
2018-06-27T04:49:35.584Z,39.50
2018-06-27T04:50:35.487Z,36.27
2018-06-27T04:51:35.415Z,32.45
2018-06-27T04:52:35.339Z,32.93
2018-06-27T04:53:35.265Z,38.85
2018-06-27T04:54:35.192Z,42.77
2018-06-27T04:55:35.118Z,45.34
2018-06-27T04:56:35.045Z,48.39
2018-06-27T04:57:34.972Z,48.33
2018-06-27T04:58:34.896Z,50.43
2018-06-27T04:59:34.823Z,48.42
2018-06-27T05:00:34.751Z,50.62
2018-06-27T05:01:34.696Z,52.15
2018-06-27T05:02:34.607Z,51.76
2018-06-27T05:03:34.531Z,50.33
2018-06-27T05:04:34.457Z,47.08
2018-06-27T05:05:34.386Z,45.46
2018-06-27T05:06:34.310Z,45.37
2018-06-27T05:07:34.246Z,45.48
2018-06-27T05:08:34.163Z,44.72
2018-06-27T05:09:34.091Z,49.69
2018-06-27T05:10:34.019Z,49.78
2018-06-27T05:11:33.977Z,48.93
2018-06-27T05:12:33.871Z,51.98
2018-06-27T05:13:33.800Z,55.99
2018-06-27T05:14:33.725Z,54.47
2018-06-27T05:15:33.654Z,54.94
2018-06-27T05:16:33.581Z,56.18
2018-06-27T05:17:33.508Z,57.75
2018-06-27T05:18:33.435Z,58.12
2018-06-27T05:19:33.362Z,58.32
2018-06-27T05:20:33.290Z,58.89
2018-06-27T05:21:33.218Z,61.95
2018-06-27T05:22:33.144Z,63.10
2018-06-27T05:23:33.072Z,64.05
2018-06-27T05:24:33.001Z,63.67
2018-06-27T05:25:32.928Z,65.30
2018-06-27T05:26:32.857Z,67.11
2018-06-27T05:27:32.836Z,68.29
2018-06-27T05:28:32.711Z,69.15
2018-06-27T05:29:32.639Z,67.43
2018-06-27T05:30:32.566Z,67.91
2018-06-27T05:31:32.493Z,68.39
2018-06-27T05:32:32.486Z,69.35
2018-06-27T05:33:32.349Z,72.22
2018-06-27T05:34:32.278Z,68.49
2018-06-27T05:35:32.249Z,70.40
2018-06-27T05:36:32.133Z,68.39
2018-06-27T05:37:32.061Z,67.82
2018-06-27T05:38:31.988Z,67.91
2018-06-27T05:39:31.920Z,69.25
2018-06-27T05:40:31.845Z,70.30
2018-06-27T05:41:31.772Z,69.35
2018-06-27T05:42:31.699Z,73.02
2018-06-27T05:43:31.626Z,75.76
2018-06-27T05:44:31.556Z,73.69
2018-06-27T05:45:31.484Z,77.42
2018-06-27T05:46:31.411Z,72.25
2018-06-27T05:47:31.340Z,69.86
2018-06-27T05:48:31.268Z,72.63
2018-06-27T05:49:31.196Z,75.41
2018-06-27T05:50:31.125Z,74.07
2018-06-27T05:51:31.064Z,77.80
2018-06-27T05:52:30.980Z,77.61
2018-06-27T05:53:30.911Z,77.99
2018-06-27T05:54:30.839Z,78.57
2018-06-27T05:55:30.767Z,78.86
2018-06-27T05:56:30.692Z,75.41
2018-06-27T05:57:30.621Z,77.70
2018-06-27T05:58:30.596Z,77.23
2018-06-27T05:59:30.480Z,75.79
2018-06-27T06:00:30.405Z,74.30
2018-06-27T06:01:30.333Z,77.55
2018-06-27T06:02:30.261Z,80.24
2018-06-27T06:03:30.192Z,81.57
2018-06-27T06:04:30.118Z,83.20
2018-06-27T06:05:30.046Z,82.53
2018-06-27T06:06:29.973Z,84.16
2018-06-27T06:07:29.904Z,88.13
2018-06-27T06:08:29.832Z,85.98
2018-06-27T06:09:29.760Z,84.55
2018-06-27T06:10:29.687Z,86.31
2018-06-27T06:11:29.665Z,86.21
2018-06-27T06:12:29.545Z,89.66
2018-06-27T06:13:29.476Z,85.45
2018-06-27T06:14:29.429Z,86.88
2018-06-27T06:15:29.333Z,91.39
2018-06-27T06:16:29.259Z,91.77
2018-06-27T06:17:29.189Z,90.81
2018-06-27T06:18:29.115Z,86.79
2018-06-27T06:19:29.045Z,87.74
2018-06-27T06:20:28.974Z,91.53
2018-06-27T06:21:28.902Z,94.59
2018-06-27T06:22:28.830Z,93.93
2018-06-27T06:23:28.759Z,93.83
2018-06-27T06:24:28.688Z,99.99
2018-06-27T06:25:28.631Z,99.99
2018-06-27T06:26:28.545Z,98.33
2018-06-27T06:27:28.474Z,99.99
2018-06-27T06:28:28.404Z,97.47
2018-06-27T06:29:28.333Z,99.48
2018-06-27T06:30:28.261Z,99.99
2018-06-27T06:31:28.191Z,99.99
2018-06-27T06:32:28.171Z,98.72
2018-06-27T06:33:28.051Z,99.99
2018-06-27T06:34:27.976Z,96.42
2018-06-27T06:35:27.908Z,99.99
2018-06-27T06:36:27.834Z,97.33
2018-06-27T06:37:27.765Z,99.99
2018-06-27T06:38:27.693Z,99.99
2018-06-27T06:39:27.621Z,99.99
2018-06-27T06:40:27.550Z,99.99
2018-06-27T06:41:27.481Z,99.99
2018-06-27T06:42:27.408Z,99.99
2018-06-27T06:43:27.338Z,99.99
2018-06-27T06:44:27.269Z,99.99
2018-06-27T06:45:27.197Z,99.99
2018-06-27T06:46:27.125Z,99.99
2018-06-27T06:47:27.057Z,99.99
2018-06-27T06:48:26.983Z,99.99
2018-06-27T06:49:26.913Z,99.99
2018-06-27T06:50:26.843Z,99.99
2018-06-27T06:51:26.772Z,99.99
2018-06-27T06:52:26.702Z,99.99
2018-06-27T06:53:26.631Z,99.99
2018-06-27T06:54:26.559Z,99.99
2018-06-27T06:55:26.488Z,99.99
2018-06-27T06:56:26.418Z,99.99
2018-06-27T06:57:26.348Z,99.99
2018-06-27T06:58:26.276Z,99.99
2018-06-27T06:59:26.207Z,99.99
2018-06-27T07:00:26.141Z,99.99
2018-06-27T07:01:26.066Z,99.99
2018-06-27T07:02:25.995Z,99.99
2018-06-27T07:03:25.924Z,99.99
2018-06-27T07:04:25.865Z,99.99
2018-06-27T07:05:25.784Z,99.99
2018-06-27T07:06:25.717Z,99.99
2018-06-27T07:07:25.643Z,99.99
2018-06-27T07:08:25.574Z,99.99
2018-06-27T07:09:25.503Z,99.99
2018-06-27T07:10:25.432Z,99.99
2018-06-27T07:11:25.474Z,99.99
2018-06-27T07:12:25.292Z,99.99
2018-06-27T07:13:25.221Z,99.99
2018-06-27T07:14:25.152Z,99.99
2018-06-27T07:15:25.083Z,99.99
2018-06-27T07:16:25.018Z,99.99
2018-06-27T07:17:24.943Z,99.99
2018-06-27T07:18:24.871Z,99.99
2018-06-27T07:19:24.801Z,99.99
2018-06-27T07:20:24.731Z,99.99
2018-06-27T07:21:24.661Z,99.99
2018-06-27T07:22:24.590Z,99.99
2018-06-27T07:23:24.520Z,99.99
2018-06-27T07:24:24.454Z,99.99
2018-06-27T07:25:24.382Z,99.99
2018-06-27T07:26:24.314Z,99.99
2018-06-27T07:27:24.240Z,99.99
2018-06-27T07:28:24.250Z,99.99
2018-06-27T07:29:24.100Z,99.99
2018-06-27T07:30:24.031Z,99.99
2018-06-27T07:31:23.960Z,99.99
2018-06-27T07:32:23.890Z,99.99
2018-06-27T07:33:23.821Z,99.99
2018-06-27T07:34:24.100Z,99.99
2018-06-27T07:35:23.686Z,99.99
2018-06-27T07:36:23.610Z,99.99
2018-06-27T07:37:23.540Z,99.99
2018-06-27T07:38:23.469Z,99.99
2018-06-27T07:39:23.403Z,99.99
2018-06-27T07:40:23.330Z,99.99
2018-06-27T07:41:23.260Z,99.99
2018-06-27T07:42:23.189Z,99.99
2018-06-27T07:43:23.119Z,99.99
2018-06-27T07:44:23.053Z,99.99
2018-06-27T07:45:22.980Z,99.99
2018-06-27T07:46:22.910Z,99.99
2018-06-27T07:47:22.843Z,99.99
2018-06-27T07:48:22.771Z,99.99
2018-06-27T07:49:22.701Z,99.99
2018-06-27T07:50:22.634Z,99.99
2018-06-27T07:51:22.562Z,99.99
2018-06-27T07:52:22.496Z,99.99
2018-06-27T07:53:22.423Z,99.99
2018-06-27T07:54:22.352Z,99.99
2018-06-27T07:55:22.284Z,99.99
2018-06-27T07:56:22.216Z,99.99
2018-06-27T07:57:22.145Z,99.99
2018-06-27T07:58:22.074Z,99.99
2018-06-27T07:59:22.006Z,99.99
2018-06-27T08:00:21.936Z,99.99
2018-06-27T08:01:21.866Z,99.99
2018-06-27T08:02:21.795Z,99.99
2018-06-27T08:03:21.727Z,99.99
2018-06-27T08:04:21.657Z,99.99
2018-06-27T08:05:21.587Z,99.99
2018-06-27T08:06:21.518Z,99.99
2018-06-27T08:07:21.448Z,99.99
2018-06-27T08:08:21.378Z,99.99
2018-06-27T08:09:21.311Z,99.99
2018-06-27T08:10:21.241Z,99.99
2018-06-27T08:11:21.170Z,99.99
2018-06-27T08:12:21.158Z,99.99
2018-06-27T08:13:21.032Z,99.99
2018-06-27T08:14:20.962Z,99.99
2018-06-27T08:15:20.893Z,99.99
2018-06-27T08:16:20.829Z,99.99
2018-06-27T08:17:20.757Z,99.99
2018-06-27T08:18:20.685Z,99.99
2018-06-27T08:19:20.615Z,99.99
2018-06-27T08:20:20.548Z,99.99
2018-06-27T08:21:20.477Z,99.99
2018-06-27T08:22:20.408Z,99.99
2018-06-27T08:23:20.339Z,99.99
2018-06-27T08:24:20.271Z,99.99
2018-06-27T08:25:20.201Z,99.99
2018-06-27T08:26:20.232Z,99.99
2018-06-27T08:27:20.068Z,99.99
2018-06-27T08:28:19.993Z,99.99
2018-06-27T08:29:19.926Z,99.99
2018-06-27T08:30:19.855Z,99.99
2018-06-27T08:31:19.787Z,99.99
2018-06-27T08:32:19.717Z,99.99
2018-06-27T08:33:19.648Z,99.99
2018-06-27T08:34:19.580Z,99.99
2018-06-27T08:35:19.516Z,99.99
2018-06-27T08:36:19.440Z,99.99
2018-06-27T08:37:19.373Z,99.99
2018-06-27T08:38:19.302Z,99.99
2018-06-27T08:39:19.234Z,99.99
2018-06-27T08:40:19.165Z,99.99
2018-06-27T08:41:19.097Z,99.99
2018-06-27T08:42:19.026Z,99.99
2018-06-27T08:43:18.957Z,99.99
2018-06-27T08:44:18.952Z,99.99
2018-06-27T08:45:18.821Z,99.99
2018-06-27T08:46:18.750Z,99.99
2018-06-27T08:47:18.684Z,99.99
2018-06-27T08:48:18.615Z,99.99
2018-06-27T08:49:18.545Z,99.99
2018-06-27T08:50:18.479Z,99.99
2018-06-27T08:51:18.407Z,99.99
2018-06-27T08:52:18.344Z,99.99
2018-06-27T08:53:18.271Z,98.87
2018-06-27T08:54:18.202Z,99.99
2018-06-27T08:55:18.134Z,99.99
2018-06-27T08:56:18.065Z,99.99
2018-06-27T08:57:17.998Z,99.99
2018-06-27T08:58:17.928Z,99.99
2018-06-27T08:59:17.860Z,99.99
2018-06-27T09:00:17.793Z,99.99
2018-06-27T09:01:17.723Z,98.87
2018-06-27T09:02:17.653Z,96.36
2018-06-27T09:03:17.584Z,94.87
2018-06-27T09:04:17.517Z,93.52
2018-06-27T09:05:17.449Z,88.31
2018-06-27T09:06:17.379Z,90.43
2018-06-27T09:07:17.310Z,93.23
2018-06-27T09:08:17.244Z,87.05
2018-06-27T09:09:17.174Z,88.02
2018-06-27T09:10:17.106Z,85.12
2018-06-27T09:11:17.038Z,79.75
2018-06-27T09:12:16.969Z,74.79
2018-06-27T09:13:16.901Z,75.76
2018-06-27T09:14:16.832Z,77.73
2018-06-27T09:15:16.771Z,77.34
2018-06-27T09:16:16.696Z,74.93
2018-06-27T09:17:16.628Z,75.99
2018-06-27T09:18:16.559Z,76.90
2018-06-27T09:19:16.489Z,79.85
2018-06-27T09:20:16.423Z,82.69
2018-06-27T09:21:16.355Z,81.30
2018-06-27T09:22:16.316Z,81.98
2018-06-27T09:23:16.218Z,79.27
2018-06-27T09:24:16.154Z,80.39
2018-06-27T09:25:16.082Z,82.03
2018-06-27T09:26:16.015Z,81.35
2018-06-27T09:27:15.946Z,83.00
2018-06-27T09:28:15.881Z,81.01
2018-06-27T09:29:15.809Z,79.37
2018-06-27T09:30:15.743Z,76.28
2018-06-27T09:31:15.694Z,71.26
2018-06-27T09:32:15.606Z,73.52
2018-06-27T09:33:15.540Z,71.88
2018-06-27T09:34:15.472Z,70.42
2018-06-27T09:35:15.402Z,70.72
2018-06-27T09:36:15.335Z,71.10
2018-06-27T09:37:15.269Z,71.52
2018-06-27T09:38:15.199Z,70.84
2018-06-27T09:39:15.132Z,71.68
2018-06-27T09:40:15.064Z,72.36
2018-06-27T09:41:14.997Z,71.39
2018-06-27T09:42:14.929Z,71.78
2018-06-27T09:43:14.861Z,72.03
2018-06-27T09:44:14.794Z,71.94
2018-06-27T09:45:14.727Z,73.58
2018-06-27T09:46:14.660Z,73.38
2018-06-27T09:47:14.597Z,70.87
2018-06-27T09:48:14.523Z,71.39
2018-06-27T09:49:14.457Z,69.07
2018-06-27T09:50:14.386Z,68.78
2018-06-27T09:51:14.320Z,66.75
2018-06-27T09:52:14.254Z,68.88
2018-06-27T09:53:14.186Z,69.10
2018-06-27T09:54:14.119Z,66.40
2018-06-27T09:55:14.049Z,65.92
2018-06-27T09:56:13.983Z,65.63
2018-06-27T09:57:13.918Z,66.88
2018-06-27T09:58:13.847Z,67.66
2018-06-27T09:59:13.780Z,67.24
2018-06-27T10:00:13.714Z,67.91
2018-06-27T10:01:13.645Z,66.94
2018-06-27T10:02:13.669Z,63.28
2018-06-27T10:03:13.511Z,64.24
2018-06-27T10:04:13.442Z,65.20
2018-06-27T10:05:13.375Z,60.86
2018-06-27T10:06:13.307Z,60.47
2018-06-27T10:07:13.240Z,61.34
2018-06-27T10:08:13.176Z,61.37
2018-06-27T10:09:13.111Z,61.57
2018-06-27T10:10:13.037Z,59.63
2018-06-27T10:11:12.970Z,58.67
2018-06-27T10:12:12.902Z,58.89
2018-06-27T10:13:12.867Z,59.28
2018-06-27T10:14:12.766Z,59.18
2018-06-27T10:15:12.698Z,58.14
2018-06-27T10:16:12.632Z,56.67
2018-06-27T10:17:12.626Z,60.63
2018-06-27T10:18:12.496Z,57.44
2018-06-27T10:19:12.428Z,56.37
2018-06-27T10:20:12.361Z,56.63
2018-06-27T10:21:12.295Z,57.24
2018-06-27T10:22:12.289Z,57.24
2018-06-27T10:23:12.159Z,56.67
2018-06-27T10:24:12.091Z,56.95
2018-06-27T10:25:12.024Z,57.24
2018-06-27T10:26:11.957Z,55.21
2018-06-27T10:27:11.889Z,55.31
2018-06-27T10:28:11.823Z,54.73
2018-06-27T10:29:11.754Z,53.47
2018-06-27T10:30:11.690Z,53.57
2018-06-27T10:31:11.619Z,52.99
2018-06-27T10:32:11.552Z,53.50
2018-06-27T10:33:11.486Z,53.41
2018-06-27T10:34:11.417Z,53.89
2018-06-27T10:35:11.351Z,54.05
2018-06-27T10:36:11.284Z,54.63
2018-06-27T10:37:11.218Z,55.05
2018-06-27T10:38:11.148Z,55.34
2018-06-27T10:39:11.082Z,55.46
2018-06-27T10:40:11.017Z,55.66
2018-06-27T10:41:10.947Z,55.56
2018-06-27T10:42:10.885Z,54.39
2018-06-27T10:43:10.814Z,54.01
2018-06-27T10:44:10.746Z,52.95
2018-06-27T10:45:10.680Z,51.18
2018-06-27T10:46:10.613Z,52.34
2018-06-27T10:47:10.545Z,52.24
2018-06-27T10:48:10.479Z,53.09
2018-06-27T10:49:10.413Z,52.22
2018-06-27T10:50:10.344Z,53.09
2018-06-27T10:51:10.278Z,52.34
2018-06-27T10:52:10.210Z,51.76
2018-06-27T10:53:10.144Z,51.15
2018-06-27T10:54:10.077Z,51.54
2018-06-27T10:55:10.009Z,53.41
2018-06-27T10:56:09.943Z,52.27
2018-06-27T10:57:09.876Z,51.68
2018-06-27T10:58:09.808Z,51.20
2018-06-27T10:59:09.741Z,51.18
2018-06-27T11:00:09.676Z,51.18
2018-06-27T11:01:09.615Z,51.83
2018-06-27T11:02:09.544Z,52.12
2018-06-27T11:03:09.473Z,51.73
2018-06-27T11:04:09.410Z,51.25
2018-06-27T11:05:09.343Z,51.95
2018-06-27T11:06:09.272Z,50.33
2018-06-27T11:07:09.206Z,50.24
2018-06-27T11:08:09.138Z,48.69
2018-06-27T11:09:09.072Z,48.69
2018-06-27T11:10:09.005Z,48.59
2018-06-27T11:11:08.938Z,48.59
2018-06-27T11:12:08.872Z,49.24
2018-06-27T11:13:08.808Z,49.73
2018-06-27T11:14:08.780Z,49.24
2018-06-27T11:15:08.670Z,49.65
2018-06-27T11:16:08.604Z,49.12
2018-06-27T11:17:08.541Z,50.96
2018-06-27T11:18:08.469Z,52.29
2018-06-27T11:19:08.402Z,51.15
2018-06-27T11:20:08.336Z,51.54
2018-06-27T11:21:08.270Z,52.34
2018-06-27T11:22:08.203Z,52.41
2018-06-27T11:23:08.136Z,50.96
2018-06-27T11:24:08.070Z,50.09
2018-06-27T11:25:08.004Z,49.51
2018-06-27T11:26:07.940Z,49.02
2018-06-27T11:27:07.870Z,49.02
2018-06-27T11:28:07.804Z,50.38
2018-06-27T11:29:07.738Z,51.47
2018-06-27T11:30:07.671Z,51.66
2018-06-27T11:31:07.608Z,51.30
2018-06-27T11:32:07.584Z,51.04
2018-06-27T11:33:07.474Z,49.87
2018-06-27T11:34:07.409Z,48.74
2018-06-27T11:35:07.345Z,49.34
2018-06-27T11:36:07.282Z,50.62
2018-06-27T11:37:07.217Z,46.96
2018-06-27T11:38:07.154Z,44.37
2018-06-27T11:39:07.093Z,44.61
2018-06-27T11:40:07.030Z,44.76
2018-06-27T11:41:06.969Z,47.45
2018-06-27T11:42:06.906Z,48.32
2018-06-27T11:43:06.908Z,46.62
2018-06-27T11:44:06.783Z,45.78
2018-06-27T11:45:06.722Z,45.04
2018-06-27T11:46:06.660Z,43.78
2018-06-27T11:47:06.598Z,42.27
2018-06-27T11:48:06.538Z,40.73
2018-06-27T11:49:06.483Z,40.62
2018-06-27T11:50:06.419Z,41.88
2018-06-27T11:51:06.356Z,41.03
2018-06-27T11:52:06.297Z,41.34
2018-06-27T11:53:06.242Z,40.75
2018-06-27T11:54:06.177Z,42.35
2018-06-27T11:55:06.120Z,41.42
2018-06-27T11:56:06.061Z,39.20
2018-06-27T11:57:06.004Z,36.49
2018-06-27T11:58:05.946Z,35.12
2018-06-27T11:59:05.889Z,35.69
2018-06-27T12:00:05.834Z,35.52
2018-06-27T12:01:05.776Z,37.08
2018-06-27T12:02:05.721Z,37.68
2018-06-27T12:03:05.661Z,37.81
2018-06-27T12:04:05.606Z,37.35
2018-06-27T12:05:05.552Z,36.49
2018-06-27T12:06:05.495Z,35.35
2018-06-27T12:07:05.437Z,34.57
2018-06-27T12:08:05.383Z,33.69
2018-06-27T12:09:05.329Z,33.72
2018-06-27T12:10:05.272Z,32.65
2018-06-27T12:11:05.220Z,33.01
2018-06-27T12:12:05.166Z,35.07
2018-06-27T12:13:05.112Z,35.19
2018-06-27T12:14:05.057Z,32.23
2018-06-27T12:15:05.001Z,32.32
2018-06-27T12:16:04.954Z,33.70
2018-06-27T12:17:04.894Z,32.73
2018-06-27T12:18:04.839Z,31.57
2018-06-27T12:19:04.786Z,31.80
2018-06-27T12:20:04.734Z,32.50
2018-06-27T12:21:04.680Z,32.40
2018-06-27T12:22:04.626Z,33.18
2018-06-27T12:23:04.574Z,33.59
2018-06-27T12:24:04.520Z,31.65
2018-06-27T12:25:04.468Z,31.05
2018-06-27T12:26:04.414Z,31.52
2018-06-27T12:27:04.360Z,32.52
2018-06-27T12:28:04.308Z,32.48
2018-06-27T12:29:04.263Z,34.34
2018-06-27T12:30:04.203Z,34.32
2018-06-27T12:31:04.149Z,34.24
2018-06-27T12:32:04.095Z,34.06
2018-06-27T12:33:04.042Z,32.89
2018-06-27T12:34:03.988Z,32.13
2018-06-27T12:35:03.936Z,31.74
2018-06-27T12:36:03.889Z,31.57
2018-06-27T12:37:03.830Z,31.57
2018-06-27T12:38:03.778Z,31.48
2018-06-27T12:39:03.724Z,31.87
2018-06-27T12:40:03.671Z,31.72
2018-06-27T12:41:03.620Z,32.89
2018-06-27T12:42:03.566Z,33.11
2018-06-27T12:43:03.513Z,33.25
2018-06-27T12:44:03.461Z,31.62
2018-06-27T12:45:03.410Z,30.65
2018-06-27T12:46:03.357Z,32.40
2018-06-27T12:47:03.305Z,30.54
2018-06-27T12:48:03.251Z,30.69
2018-06-27T12:49:03.200Z,32.32
2018-06-27T12:50:03.232Z,32.79
2018-06-27T12:51:03.097Z,32.86
2018-06-27T12:52:03.044Z,33.54